createdAt,value
2019-02-25T00:00:09.034Z,431
2019-02-25T00:01:11.464Z,431.3
2019-02-25T00:02:13.618Z,431.3
2019-02-25T00:03:15.210Z,431.5
2019-02-25T00:04:17.371Z,431.6
2019-02-25T00:05:19.537Z,431.8
2019-02-25T00:06:21.971Z,432
2019-02-25T00:07:24.402Z,432.3
2019-02-25T00:08:26.851Z,431.7
2019-02-25T00:09:29.294Z,432.3
2019-02-25T00:10:31.153Z,432.1
2019-02-25T00:11:33.621Z,432
2019-02-25T00:12:35.790Z,432
2019-02-25T00:13:38.223Z,432.2
2019-02-25T00:14:40.651Z,432.5
2019-02-25T00:15:42.791Z,432.4
2019-02-25T00:16:44.931Z,432.6
2019-02-25T00:17:47.086Z,432.5
2019-02-25T00:18:49.521Z,432.9
2019-02-25T00:19:51.683Z,432.9
2019-02-25T00:20:54.113Z,433.4
2019-02-25T00:21:56.546Z,433.5
2019-02-25T00:22:58.979Z,433.8
2019-02-25T00:24:01.154Z,433.5
2019-02-25T00:25:03.594Z,433.1
2019-02-25T00:26:05.753Z,433.2
2019-02-25T00:27:07.913Z,433.2
2019-02-25T00:28:10.110Z,433.7
2019-02-25T00:29:12.529Z,433.9
2019-02-25T00:30:15.005Z,434.1
2019-02-25T00:31:17.175Z,434
2019-02-25T00:32:19.604Z,434.1
2019-02-25T00:33:21.501Z,434.1
2019-02-25T00:34:23.930Z,433.5
2019-02-25T00:35:26.340Z,434
2019-02-25T00:36:28.482Z,434.2
2019-02-25T00:37:30.636Z,433.7
2019-02-25T00:38:32.503Z,433.9
2019-02-25T00:39:34.925Z,433.3
2019-02-25T00:40:37.352Z,433.1
2019-02-25T00:41:39.519Z,433.2
2019-02-25T00:42:41.412Z,433.2
2019-02-25T00:43:43.846Z,432.9
2019-02-25T00:44:46.273Z,433.1
2019-02-25T00:45:48.705Z,432.9
2019-02-25T00:46:51.128Z,433.2
2019-02-25T00:47:53.551Z,432.8
2019-02-25T00:48:55.985Z,433.3
2019-02-25T00:49:58.425Z,433.4
2019-02-25T00:51:00.295Z,433.4
2019-02-25T00:52:02.450Z,433.5
2019-02-25T00:53:04.603Z,433.8
2019-02-25T00:54:07.073Z,433.8
2019-02-25T00:55:09.508Z,433.7
2019-02-25T00:56:11.935Z,433.3
2019-02-25T00:57:14.103Z,433.2
2019-02-25T00:58:16.524Z,433.2
2019-02-25T00:59:18.710Z,433.1
2019-02-25T01:00:21.144Z,433
2019-02-25T01:01:23.293Z,432.8
2019-02-25T01:02:25.461Z,432.8
2019-02-25T01:03:27.325Z,432.8
2019-02-25T01:04:29.760Z,432.4
2019-02-25T01:05:32.182Z,433.4
2019-02-25T01:06:34.603Z,433.4
2019-02-25T01:07:37.026Z,433.6
2019-02-25T01:08:39.163Z,433.8
2019-02-25T01:09:41.296Z,433.9
2019-02-25T01:10:43.741Z,433.5
2019-02-25T01:11:45.907Z,433.4
2019-02-25T01:12:48.337Z,433.4
2019-02-25T01:13:50.772Z,433.4
2019-02-25T01:14:52.953Z,433.9
2019-02-25T01:15:55.111Z,433.7
2019-02-25T01:16:57.545Z,433.9
2019-02-25T01:18:01.346Z,434
2019-02-25T01:19:03.764Z,434
2019-02-25T01:20:06.236Z,434.1
2019-02-25T01:21:07.833Z,434.2
2019-02-25T01:22:10.260Z,434.4
2019-02-25T01:23:12.691Z,434.1
2019-02-25T01:24:14.858Z,434.6
2019-02-25T01:25:17.014Z,434.4
2019-02-25T01:26:19.444Z,434.2
2019-02-25T01:27:21.868Z,434.4
2019-02-25T01:28:24.291Z,434
2019-02-25T01:29:26.727Z,434.3
2019-02-25T01:30:28.875Z,434
2019-02-25T01:31:31.302Z,434.6
2019-02-25T01:32:33.743Z,434.6
2019-02-25T01:33:36.174Z,435.1
2019-02-25T01:34:38.590Z,434.7
2019-02-25T01:35:40.468Z,434.7
2019-02-25T01:36:42.903Z,434.8
2019-02-25T01:37:44.781Z,435
2019-02-25T01:38:46.937Z,434.9
2019-02-25T01:39:49.385Z,435.2
2019-02-25T01:40:51.542Z,435.4
2019-02-25T01:41:53.421Z,435.2
2019-02-25T01:42:55.849Z,435.6
2019-02-25T01:43:58.274Z,435.3
2019-02-25T01:45:00.426Z,435.2
2019-02-25T01:46:02.854Z,435.6
2019-02-25T01:47:04.709Z,435.7
2019-02-25T01:48:07.137Z,435.9
2019-02-25T01:49:09.550Z,435.5
2019-02-25T01:50:11.724Z,435.3
2019-02-25T01:51:13.879Z,434.9
2019-02-25T01:52:16.298Z,435
2019-02-25T01:53:18.727Z,435.4
2019-02-25T01:54:20.866Z,435.2
2019-02-25T01:55:23.291Z,434.8
2019-02-25T01:56:25.449Z,434.9
2019-02-25T01:57:27.295Z,434.6
2019-02-25T01:58:28.893Z,434.9
2019-02-25T01:59:30.768Z,434.5
2019-02-25T02:00:33.203Z,434.2
2019-02-25T02:01:34.807Z,434.8
2019-02-25T02:02:36.977Z,434
2019-02-25T02:03:39.409Z,434.3
2019-02-25T02:04:41.578Z,434.1
2019-02-25T02:05:43.737Z,433.9
2019-02-25T02:06:46.175Z,433.7
2019-02-25T02:07:48.055Z,433.7
2019-02-25T02:08:50.491Z,433.5
2019-02-25T02:09:52.635Z,433.9
2019-02-25T02:10:54.245Z,433.8
2019-02-25T02:11:56.389Z,433.8
2019-02-25T02:12:58.545Z,434.1
2019-02-25T02:14:00.709Z,433.7
2019-02-25T02:15:03.149Z,433.8
2019-02-25T02:16:05.610Z,433.6
2019-02-25T02:17:07.774Z,433.5
2019-02-25T02:18:10.200Z,433.7
2019-02-25T02:19:12.348Z,433.7
2019-02-25T02:20:14.773Z,434.2
2019-02-25T02:21:16.917Z,434
2019-02-25T02:22:18.814Z,433.8
2019-02-25T02:23:20.976Z,434.1
2019-02-25T02:24:23.168Z,434
2019-02-25T02:25:25.065Z,434.4
2019-02-25T02:26:27.494Z,434.1
2019-02-25T02:27:29.625Z,434.4
2019-02-25T02:28:31.783Z,434.2
2019-02-25T02:29:34.217Z,433.8
2019-02-25T02:30:36.371Z,434.2
2019-02-25T02:31:38.516Z,434.1
2019-02-25T02:32:40.387Z,433.8
2019-02-25T02:33:42.822Z,434.2
2019-02-25T02:34:44.970Z,434.1
2019-02-25T02:35:47.133Z,434.3
2019-02-25T02:36:48.993Z,434.4
2019-02-25T02:37:51.432Z,434.8
2019-02-25T02:38:53.326Z,434.5
2019-02-25T02:39:55.255Z,434.7
2019-02-25T02:40:57.407Z,434.2
2019-02-25T02:41:59.848Z,434.3
2019-02-25T02:43:02.000Z,434.4
2019-02-25T02:44:04.437Z,434.4
2019-02-25T02:45:06.866Z,434.1
2019-02-25T02:46:09.366Z,434.9
2019-02-25T02:47:11.271Z,435.3
2019-02-25T02:48:13.697Z,435.8
2019-02-25T02:49:15.924Z,435.4
2019-02-25T02:50:18.073Z,435.6
2019-02-25T02:51:20.506Z,435.4
2019-02-25T02:52:22.673Z,435.7
2019-02-25T02:53:24.833Z,435.3
2019-02-25T02:54:27.260Z,435.1
2019-02-25T02:55:29.418Z,435.5
2019-02-25T02:56:31.588Z,435.3
2019-02-25T02:57:33.555Z,435.2
2019-02-25T02:58:35.973Z,435.3
2019-02-25T02:59:38.124Z,435.4
2019-02-25T03:00:40.276Z,435.3
2019-02-25T03:01:42.423Z,435
2019-02-25T03:02:44.845Z,435.2
2019-02-25T03:03:47.281Z,435.3
2019-02-25T03:04:49.721Z,435.5
2019-02-25T03:05:52.137Z,435.4
2019-02-25T03:06:54.294Z,435.1
2019-02-25T03:07:56.722Z,435.1
2019-02-25T03:08:59.210Z,435.2
2019-02-25T03:10:01.718Z,435.3
2019-02-25T03:11:03.860Z,434.8
2019-02-25T03:12:06.013Z,434.7
2019-02-25T03:13:08.432Z,434.6
2019-02-25T03:14:10.865Z,434.5
2019-02-25T03:15:13.286Z,435
2019-02-25T03:16:15.425Z,435.1
2019-02-25T03:17:17.850Z,435
2019-02-25T03:18:20.278Z,435.2
2019-02-25T03:19:22.707Z,435.4
2019-02-25T03:20:25.220Z,435.7
2019-02-25T03:21:27.361Z,435.8
2019-02-25T03:22:29.508Z,435.8
2019-02-25T03:23:31.367Z,436.1
2019-02-25T03:24:33.534Z,436.5
2019-02-25T03:25:35.148Z,436.3
2019-02-25T03:26:37.567Z,436.4
2019-02-25T03:27:39.711Z,436.3
2019-02-25T03:28:42.137Z,436.2
2019-02-25T03:29:44.013Z,436.1
2019-02-25T03:30:46.171Z,436.2
2019-02-25T03:31:48.597Z,436
2019-02-25T03:32:51.080Z,436
2019-02-25T03:33:52.979Z,435.6
2019-02-25T03:34:55.416Z,435.5
2019-02-25T03:35:57.007Z,435.7
2019-02-25T03:36:59.439Z,435.8
2019-02-25T03:38:01.867Z,435.6
2019-02-25T03:39:04.032Z,435.9
2019-02-25T03:40:06.455Z,435.5
2019-02-25T03:41:08.878Z,435.6
2019-02-25T03:42:11.018Z,435.7
2019-02-25T03:43:13.184Z,435.6
2019-02-25T03:44:15.609Z,435.1
2019-02-25T03:45:18.035Z,435.5
2019-02-25T03:46:19.939Z,435.4
2019-02-25T03:47:22.112Z,435.8
2019-02-25T03:48:23.683Z,435.6
2019-02-25T03:49:26.112Z,435.7
2019-02-25T03:50:27.980Z,436.1
2019-02-25T03:51:30.415Z,435.2
2019-02-25T03:52:32.314Z,435.5
2019-02-25T03:53:34.190Z,435.6
2019-02-25T03:54:36.053Z,435.3
2019-02-25T03:55:38.213Z,436
2019-02-25T03:56:40.373Z,436.1
2019-02-25T03:57:42.800Z,435.8
2019-02-25T03:58:44.684Z,436.3
2019-02-25T03:59:47.102Z,436.4
2019-02-25T04:00:49.293Z,436.5
2019-02-25T04:01:51.442Z,436.4
2019-02-25T04:02:53.866Z,436.3
2019-02-25T04:03:55.996Z,436.3
2019-02-25T04:04:57.902Z,436.3
2019-02-25T04:05:59.504Z,436.3
2019-02-25T04:07:01.652Z,436.2
2019-02-25T04:08:04.085Z,436.3
2019-02-25T04:09:06.530Z,436.3
2019-02-25T04:10:08.679Z,436.3
2019-02-25T04:11:10.540Z,435.7
2019-02-25T04:12:12.973Z,436.2
2019-02-25T04:13:15.128Z,436
2019-02-25T04:14:16.990Z,436.4
2019-02-25T04:15:19.146Z,436.6
2019-02-25T04:16:21.623Z,436.1
2019-02-25T04:17:24.058Z,436.7
2019-02-25T04:18:26.238Z,436.1
2019-02-25T04:19:28.394Z,436.1
2019-02-25T04:20:30.893Z,436.5
2019-02-25T04:21:33.313Z,436.7
2019-02-25T04:22:35.740Z,436.6
2019-02-25T04:23:37.886Z,436.2
2019-02-25T04:24:40.307Z,436.2
2019-02-25T04:25:42.448Z,436
2019-02-25T04:26:44.584Z,436.2
2019-02-25T04:27:46.759Z,436
2019-02-25T04:28:49.179Z,436.6
2019-02-25T04:29:51.342Z,436.2
2019-02-25T04:30:53.802Z,436.1
2019-02-25T04:31:56.233Z,436
2019-02-25T04:32:58.663Z,436.2
2019-02-25T04:34:01.102Z,436.6
2019-02-25T04:35:03.549Z,436.7
2019-02-25T04:36:05.980Z,436.6
2019-02-25T04:37:08.406Z,436.8
2019-02-25T04:38:10.558Z,436.9
2019-02-25T04:39:12.690Z,436.6
2019-02-25T04:40:14.837Z,436.6
2019-02-25T04:41:16.689Z,436.7
2019-02-25T04:42:18.853Z,436.5
2019-02-25T04:43:21.278Z,436.3
2019-02-25T04:44:23.708Z,436.2
2019-02-25T04:45:26.142Z,436.4
2019-02-25T04:46:28.018Z,435.9
2019-02-25T04:47:30.438Z,436.1
2019-02-25T04:48:32.862Z,436.3
2019-02-25T04:49:35.006Z,436.4
2019-02-25T04:50:37.440Z,436.3
2019-02-25T04:51:39.860Z,435.9
2019-02-25T04:52:42.289Z,436.2
2019-02-25T04:53:44.710Z,436.2
2019-02-25T04:54:46.591Z,436.2
2019-02-25T04:55:49.021Z,436
2019-02-25T04:56:51.191Z,436.6
2019-02-25T04:57:53.341Z,436.6
2019-02-25T04:58:55.762Z,436.6
2019-02-25T04:59:58.194Z,436.5
2019-02-25T05:01:00.339Z,436.3
2019-02-25T05:02:03.760Z,436.5
2019-02-25T05:03:05.922Z,436.4
2019-02-25T05:04:08.349Z,436.4
2019-02-25T05:05:10.505Z,436.1
2019-02-25T05:06:12.391Z,436.1
2019-02-25T05:07:14.814Z,436.2
2019-02-25T05:08:16.982Z,435.9
2019-02-25T05:09:19.412Z,436.1
2019-02-25T05:10:21.841Z,435.9
2019-02-25T05:11:26.225Z,435.2
2019-02-25T05:12:28.389Z,435.4
2019-02-25T05:13:30.253Z,434.9
2019-02-25T05:14:32.681Z,434.6
2019-02-25T05:15:35.381Z,434.6
2019-02-25T05:16:39.856Z,435.3
2019-02-25T05:17:44.604Z,435.4
2019-02-25T05:18:47.038Z,434.8
2019-02-25T05:19:49.469Z,435
2019-02-25T05:20:51.915Z,435
2019-02-25T05:21:54.362Z,434.4
2019-02-25T05:22:56.513Z,434.7
2019-02-25T05:23:58.946Z,434.1
2019-02-25T05:25:01.476Z,434.2
2019-02-25T05:26:03.657Z,434.1
2019-02-25T05:27:05.813Z,434.1
2019-02-25T05:28:08.011Z,434.2
2019-02-25T05:29:10.479Z,434.2
2019-02-25T05:30:12.947Z,434.6
2019-02-25T05:31:15.126Z,435
2019-02-25T05:32:17.028Z,435
2019-02-25T05:33:19.298Z,434.7
2019-02-25T05:34:21.509Z,434.7
2019-02-25T05:35:23.974Z,435.2
2019-02-25T05:36:26.392Z,435.6
2019-02-25T05:37:28.527Z,435.6
2019-02-25T05:38:30.679Z,435.2
2019-02-25T05:39:33.107Z,435.1
2019-02-25T05:40:35.301Z,435.3
2019-02-25T05:41:37.779Z,435.5
2019-02-25T05:42:39.941Z,435.9
2019-02-25T05:43:42.401Z,435.1
2019-02-25T05:44:44.840Z,435.8
2019-02-25T05:45:47.287Z,435.7
2019-02-25T05:46:49.463Z,435.5
2019-02-25T05:47:51.916Z,436
2019-02-25T05:48:53.793Z,435.8
2019-02-25T05:49:55.973Z,435.3
2019-02-25T05:50:58.402Z,435.5
2019-02-25T05:52:00.825Z,435.7
2019-02-25T05:53:03.003Z,435.1
2019-02-25T05:54:05.446Z,434.7
2019-02-25T05:55:07.889Z,434.6
2019-02-25T05:56:10.051Z,434.5
2019-02-25T05:57:11.926Z,434.3
2019-02-25T05:58:14.432Z,434.2
2019-02-25T05:59:16.870Z,434
2019-02-25T06:00:19.304Z,433.7
2019-02-25T06:01:21.749Z,433.8
2019-02-25T06:02:24.179Z,433.8
2019-02-25T06:03:26.623Z,434.4
2019-02-25T06:04:29.047Z,434.7
2019-02-25T06:05:31.472Z,435.1
2019-02-25T06:06:33.898Z,435.2
2019-02-25T06:07:35.806Z,435.1
2019-02-25T06:08:38.054Z,435
2019-02-25T06:09:40.492Z,434.9
2019-02-25T06:10:42.383Z,434.7
2019-02-25T06:11:44.545Z,434.8
2019-02-25T06:12:46.715Z,434.5
2019-02-25T06:13:49.135Z,434.8
2019-02-25T06:14:51.293Z,434.3
2019-02-25T06:15:53.740Z,434
2019-02-25T06:16:55.905Z,434.1
2019-02-25T06:17:58.352Z,433.5
2019-02-25T06:19:00.510Z,433.6
2019-02-25T06:20:02.952Z,433.4
2019-02-25T06:21:04.845Z,433.5
2019-02-25T06:22:07.279Z,433.6
2019-02-25T06:23:09.725Z,433.5
2019-02-25T06:24:11.616Z,433.3
2019-02-25T06:25:13.918Z,433.1
2019-02-25T06:26:16.329Z,433.5
2019-02-25T06:27:18.489Z,433.7
2019-02-25T06:28:20.911Z,434
2019-02-25T06:29:23.360Z,434.1
2019-02-25T06:30:25.809Z,434.2
2019-02-25T06:31:27.977Z,434.3
2019-02-25T06:32:30.130Z,434.1
2019-02-25T06:33:32.558Z,434
2019-02-25T06:34:34.987Z,433.9
2019-02-25T06:35:37.419Z,433.9
2019-02-25T06:36:39.850Z,434.1
2019-02-25T06:37:42.012Z,434.3
2019-02-25T06:38:44.396Z,434.3
2019-02-25T06:39:46.554Z,434.4
2019-02-25T06:40:48.707Z,434.3
2019-02-25T06:41:50.577Z,434.5
2019-02-25T06:42:52.739Z,434.5
2019-02-25T06:43:54.893Z,435
2019-02-25T06:44:57.323Z,434.7
2019-02-25T06:45:59.772Z,434.9
2019-02-25T06:47:02.197Z,434.6
2019-02-25T06:48:04.372Z,434.4
2019-02-25T06:49:06.841Z,434.6
2019-02-25T06:50:09.000Z,434.8
2019-02-25T06:51:11.439Z,434.9
2019-02-25T06:52:13.879Z,435.1
2019-02-25T06:53:16.304Z,434.7
2019-02-25T06:54:18.727Z,434.8
2019-02-25T06:55:21.149Z,434.8
2019-02-25T06:56:23.329Z,434.4
2019-02-25T06:57:25.490Z,434.4
2019-02-25T06:58:27.941Z,434.1
2019-02-25T06:59:30.134Z,433.9
2019-02-25T07:00:32.577Z,433.9
2019-02-25T07:01:34.730Z,433.5
2019-02-25T07:02:37.160Z,433.5
2019-02-25T07:03:39.577Z,433.6
2019-02-25T07:04:41.739Z,433.5
2019-02-25T07:05:43.887Z,433.1
2019-02-25T07:06:46.332Z,433.8
2019-02-25T07:07:48.758Z,433.5
2019-02-25T07:08:51.199Z,433.6
2019-02-25T07:09:53.366Z,433.9
2019-02-25T07:10:55.249Z,433.8
2019-02-25T07:11:57.117Z,434.1
2019-02-25T07:12:59.568Z,433.8
2019-02-25T07:14:01.719Z,434.1
2019-02-25T07:15:04.146Z,434.1
2019-02-25T07:16:06.558Z,433.6
2019-02-25T07:17:08.705Z,433.9
2019-02-25T07:18:11.131Z,434.3
2019-02-25T07:19:13.559Z,434.5
2019-02-25T07:20:15.709Z,434.6
2019-02-25T07:21:17.851Z,434.8
2019-02-25T07:22:20.273Z,434.7
2019-02-25T07:23:21.896Z,435.2
2019-02-25T07:24:24.315Z,435.2
2019-02-25T07:25:26.483Z,435
2019-02-25T07:26:29.596Z,434.8
2019-02-25T07:27:32.030Z,434.8
2019-02-25T07:28:34.457Z,434.5
2019-02-25T07:29:36.626Z,434.7
2019-02-25T07:30:39.057Z,434.5
2019-02-25T07:31:41.484Z,434.5
2019-02-25T07:32:43.625Z,434.5
2019-02-25T07:33:46.061Z,434.8
2019-02-25T07:34:48.485Z,434.8
2019-02-25T07:35:50.419Z,434.8
2019-02-25T07:36:52.839Z,434.4
2019-02-25T07:37:54.982Z,435
2019-02-25T07:38:57.400Z,434.5
2019-02-25T07:39:59.262Z,434.7
2019-02-25T07:41:01.697Z,434.4
2019-02-25T07:42:04.128Z,434.3
2019-02-25T07:43:06.758Z,434.6
2019-02-25T07:44:08.956Z,434.4
2019-02-25T07:45:11.405Z,434.3
2019-02-25T07:46:13.839Z,434.4
2019-02-25T07:47:16.265Z,433.8
2019-02-25T07:48:18.442Z,433.9
2019-02-25T07:49:20.593Z,433.5
2019-02-25T07:50:22.764Z,433.5
2019-02-25T07:51:24.910Z,433.8
2019-02-25T07:52:27.074Z,433.5
2019-02-25T07:53:29.499Z,433.5
2019-02-25T07:54:31.933Z,433.9
2019-02-25T07:55:34.093Z,433.1
2019-02-25T07:56:36.508Z,433.5
2019-02-25T07:57:38.718Z,433.5
2019-02-25T07:58:40.878Z,433.9
2019-02-25T07:59:42.762Z,433.9
2019-02-25T08:00:45.197Z,433.5
2019-02-25T08:01:47.639Z,433.9
2019-02-25T08:02:49.801Z,433.8
2019-02-25T08:03:52.231Z,433.9
2019-02-25T08:04:54.666Z,434.1
2019-02-25T08:05:56.551Z,434.6
2019-02-25T08:06:58.976Z,434.5
2019-02-25T08:08:01.130Z,434.5
2019-02-25T08:09:03.040Z,434.5
2019-02-25T08:10:05.175Z,435
2019-02-25T08:11:07.609Z,434.4
2019-02-25T08:12:09.230Z,434.4
2019-02-25T08:13:11.398Z,434.7
2019-02-25T08:14:13.279Z,434.4
2019-02-25T08:15:15.695Z,433.9
2019-02-25T08:16:18.118Z,434.4
2019-02-25T08:17:20.321Z,434.5
2019-02-25T08:18:22.484Z,434.5
2019-02-25T08:19:24.659Z,434.1
2019-02-25T08:20:27.081Z,433.6
2019-02-25T08:21:29.508Z,434
2019-02-25T08:22:31.651Z,434.2
2019-02-25T08:23:33.807Z,434
2019-02-25T08:24:35.970Z,433.9
2019-02-25T08:25:37.843Z,434.2
2019-02-25T08:26:40.270Z,434.5
2019-02-25T08:27:42.127Z,434.7
2019-02-25T08:28:44.564Z,434.6
2019-02-25T08:29:46.727Z,434.6
2019-02-25T08:30:49.159Z,434.7
2019-02-25T08:31:51.603Z,434.7
2019-02-25T08:32:53.738Z,434.7
2019-02-25T08:33:57.207Z,434.9
2019-02-25T08:34:59.371Z,434.6
2019-02-25T08:36:01.263Z,434.5
2019-02-25T08:37:04.377Z,434.5
2019-02-25T08:38:06.258Z,434.1
2019-02-25T08:39:08.690Z,434.3
2019-02-25T08:40:13.083Z,433.9
2019-02-25T08:41:14.976Z,434.5
2019-02-25T08:42:17.412Z,434.5
2019-02-25T08:43:19.565Z,434.3
2019-02-25T08:44:22.011Z,434.2
2019-02-25T08:45:24.837Z,434.7
2019-02-25T08:46:27.261Z,434.3
2019-02-25T08:47:29.411Z,434.3
2019-02-25T08:48:31.556Z,434.5
2019-02-25T08:49:33.739Z,434.1
2019-02-25T08:50:36.172Z,434.3
2019-02-25T08:51:38.047Z,433.9
2019-02-25T08:52:40.202Z,434.2
2019-02-25T08:53:43.232Z,434
2019-02-25T08:54:45.376Z,433.6
2019-02-25T08:55:47.797Z,433.9
2019-02-25T08:56:49.929Z,433.8
2019-02-25T08:57:51.807Z,433.9
2019-02-25T08:58:54.249Z,434
2019-02-25T08:59:56.419Z,434
2019-02-25T09:00:58.582Z,433.9
2019-02-25T09:02:01.039Z,433.9
2019-02-25T09:03:02.922Z,433.4
2019-02-25T09:04:05.377Z,433.6
2019-02-25T09:05:07.809Z,433.6
2019-02-25T09:06:09.975Z,433.6
2019-02-25T09:07:12.411Z,433.5
2019-02-25T09:08:14.854Z,433.7
2019-02-25T09:09:17.013Z,433.6
2019-02-25T09:10:19.441Z,432.8
2019-02-25T09:11:21.589Z,432.8
2019-02-25T09:12:23.746Z,432.6
2019-02-25T09:13:25.914Z,432.7
2019-02-25T09:14:28.357Z,432.4
2019-02-25T09:15:32.971Z,432.6
2019-02-25T09:16:35.415Z,432.3
2019-02-25T09:17:37.562Z,432.1
2019-02-25T09:18:39.987Z,432
2019-02-25T09:19:42.133Z,431.7
2019-02-25T09:20:44.554Z,431.8
2019-02-25T09:21:47.025Z,431.6
2019-02-25T09:22:50.001Z,431.8
2019-02-25T09:23:52.176Z,431.8
2019-02-25T09:24:54.340Z,432
2019-02-25T09:25:56.511Z,431.7
2019-02-25T09:26:58.650Z,431.8
2019-02-25T09:28:01.068Z,432
2019-02-25T09:29:03.501Z,431.8
2019-02-25T09:30:05.923Z,432.2
2019-02-25T09:31:08.369Z,432.2
2019-02-25T09:32:10.799Z,432.3
2019-02-25T09:33:13.230Z,432.3
2019-02-25T09:34:15.393Z,432.1
2019-02-25T09:35:17.821Z,432
2019-02-25T09:36:20.250Z,432.3
2019-02-25T09:37:22.674Z,432.3
2019-02-25T09:38:25.388Z,432.1
2019-02-25T09:39:26.977Z,431.7
2019-02-25T09:40:29.116Z,432
2019-02-25T09:41:32.056Z,431.7
2019-02-25T09:42:34.477Z,431.6
2019-02-25T09:43:36.919Z,431.6
2019-02-25T09:44:39.733Z,431.4
2019-02-25T09:45:42.189Z,431.4
2019-02-25T09:46:44.621Z,431.5
2019-02-25T09:47:46.769Z,431.2
2019-02-25T09:48:48.928Z,431.5
2019-02-25T09:49:53.044Z,431.1
2019-02-25T09:50:55.466Z,430.9
2019-02-25T09:51:57.898Z,431
2019-02-25T09:53:00.320Z,431.2
2019-02-25T09:54:02.195Z,431.1
2019-02-25T09:55:04.617Z,430.9
2019-02-25T09:56:07.053Z,431.5
2019-02-25T09:57:09.507Z,431.1
2019-02-25T09:58:11.414Z,431.1
2019-02-25T09:59:13.840Z,431.1
2019-02-25T10:00:16.266Z,431.3
2019-02-25T10:01:18.430Z,431.3
2019-02-25T10:02:20.847Z,431.1
2019-02-25T10:03:22.975Z,431
2019-02-25T10:04:25.119Z,431.2
2019-02-25T10:05:27.551Z,431.4
2019-02-25T10:06:29.977Z,431
2019-02-25T10:07:32.412Z,431.1
2019-02-25T10:08:34.848Z,431.3
2019-02-25T10:09:37.283Z,430.8
2019-02-25T10:10:39.452Z,431
2019-02-25T10:11:41.620Z,430.9
2019-02-25T10:12:43.781Z,431
2019-02-25T10:13:45.659Z,430.8
2019-02-25T10:14:49.482Z,431
2019-02-25T10:15:52.009Z,431.2
2019-02-25T10:16:55.946Z,430.9
2019-02-25T10:17:58.401Z,431.1
2019-02-25T10:19:00.834Z,431.2
2019-02-25T10:20:03.000Z,431.2
2019-02-25T10:21:05.159Z,431.2
2019-02-25T10:22:07.586Z,431.2
2019-02-25T10:23:09.744Z,431.2
2019-02-25T10:24:11.916Z,430.9
2019-02-25T10:25:14.076Z,431
2019-02-25T10:26:16.228Z,430.6
2019-02-25T10:27:18.107Z,430.5
2019-02-25T10:28:20.538Z,430.7
2019-02-25T10:29:22.990Z,430.8
2019-02-25T10:30:25.143Z,430.3
2019-02-25T10:31:27.569Z,430.1
2019-02-25T10:32:31.599Z,430.3
2019-02-25T10:33:33.758Z,430.1
2019-02-25T10:34:36.190Z,429.9
2019-02-25T10:35:38.343Z,429.9
2019-02-25T10:36:40.501Z,430.1
2019-02-25T10:37:45.294Z,429.9
2019-02-25T10:38:47.445Z,430
2019-02-25T10:39:52.685Z,429.9
2019-02-25T10:40:55.870Z,430.1
2019-02-25T10:43:02.747Z,429.7
2019-02-25T10:48:27.344Z,429.6
2019-02-25T10:53:55.130Z,430.9
2019-02-25T10:54:59.777Z,431.4
2019-02-25T10:56:02.198Z,431.4
2019-02-25T10:57:04.615Z,431.3
2019-02-25T10:58:07.038Z,431.6
2019-02-25T10:59:10.200Z,431.2
2019-02-25T11:00:15.302Z,430.9
2019-02-25T11:02:22.708Z,431.5
2019-02-25T11:03:24.578Z,432
2019-02-25T11:04:28.259Z,431.4
2019-02-25T11:05:32.310Z,431.8
2019-02-25T11:07:43.420Z,431.1
2019-02-25T11:08:47.632Z,431.4
2019-02-25T11:09:51.931Z,432.1
2019-02-25T11:13:06.218Z,431.6
2019-02-25T11:17:26.304Z,432
2019-02-25T11:18:30.356Z,432.1
2019-02-25T11:19:34.921Z,432.3
2019-02-25T11:22:49.720Z,432.6
2019-02-25T11:24:59.058Z,433
2019-02-25T11:27:08.848Z,433.2
2019-02-25T11:29:18.241Z,433.4
2019-02-25T11:30:24.969Z,433.1
2019-02-25T11:32:32.378Z,434
2019-02-25T11:33:36.408Z,433.9
2019-02-25T11:34:41.331Z,434
2019-02-25T11:35:48.787Z,434.1
2019-02-25T11:40:06.390Z,433.7
2019-02-25T11:41:12.462Z,434.1
2019-02-25T11:45:33.623Z,434.2
2019-02-25T11:46:35.773Z,434.5
2019-02-25T11:47:37.644Z,435
2019-02-25T11:48:40.075Z,434.8
2019-02-25T11:49:42.220Z,434.8
2019-02-25T11:50:46.743Z,434.9
2019-02-25T11:51:49.168Z,435.3
2019-02-25T11:52:51.324Z,435.4
2019-02-25T11:53:53.761Z,435.3
2019-02-25T11:54:56.191Z,435.6
2019-02-25T11:55:58.344Z,435.7
2019-02-25T11:57:00.531Z,435.6
2019-02-25T11:58:02.972Z,435.7
2019-02-25T11:59:05.414Z,435.7
2019-02-25T12:00:07.260Z,435.1
2019-02-25T12:01:09.152Z,435.2
2019-02-25T12:02:11.291Z,435.1
2019-02-25T12:03:13.452Z,435.2
2019-02-25T12:04:15.890Z,435.3
2019-02-25T12:05:18.333Z,435.6
2019-02-25T12:06:20.754Z,435.4
2019-02-25T12:07:23.203Z,435.2
2019-02-25T12:08:25.638Z,435.9
2019-02-25T12:09:27.800Z,435.8
2019-02-25T12:10:29.954Z,436
2019-02-25T12:11:32.377Z,435.7
2019-02-25T12:12:34.552Z,435.6
2019-02-25T12:13:36.703Z,435.7
2019-02-25T12:14:39.133Z,435.7
2019-02-25T12:15:41.278Z,435.8
2019-02-25T12:16:43.162Z,435.5
2019-02-25T12:17:45.590Z,435.6
2019-02-25T12:18:47.748Z,435.5
2019-02-25T12:19:49.361Z,435.9
2019-02-25T12:20:51.493Z,435.9
2019-02-25T12:21:53.941Z,436.1
2019-02-25T12:22:56.372Z,436.2
2019-02-25T12:23:58.811Z,436
2019-02-25T12:25:01.303Z,436.2
2019-02-25T12:26:03.738Z,436.6
2019-02-25T12:27:05.622Z,436.5
2019-02-25T12:28:07.791Z,436.8
2019-02-25T12:30:15.200Z,436.5
2019-02-25T12:31:17.365Z,436.6
2019-02-25T12:32:19.517Z,436.9
2019-02-25T12:33:21.970Z,436.6
2019-02-25T12:34:24.419Z,436.6
2019-02-25T12:35:26.860Z,436.9
2019-02-25T12:36:29.013Z,436.9
2019-02-25T12:37:30.875Z,436.2
2019-02-25T12:38:32.786Z,436.1
2019-02-25T12:39:35.209Z,436.3
2019-02-25T12:40:37.640Z,436.5
2019-02-25T12:41:39.827Z,437
2019-02-25T12:42:42.259Z,436.9
2019-02-25T12:43:44.692Z,436.7
2019-02-25T12:44:47.123Z,437
2019-02-25T12:45:49.561Z,436.9
2019-02-25T12:46:52.005Z,436.3
2019-02-25T12:47:54.433Z,436.5
2019-02-25T12:48:56.594Z,437
2019-02-25T12:49:59.034Z,436.8
2019-02-25T12:51:01.478Z,437.3
2019-02-25T12:52:03.909Z,437.2
2019-02-25T12:53:06.078Z,436.6
2019-02-25T12:54:08.501Z,437.5
2019-02-25T12:55:10.660Z,437.8
2019-02-25T12:56:12.265Z,437.6
2019-02-25T12:57:14.133Z,438
2019-02-25T12:58:16.280Z,438.2
2019-02-25T12:59:18.721Z,438.5
2019-02-25T13:00:20.585Z,438.7
2019-02-25T13:01:23.047Z,439
2019-02-25T13:02:25.471Z,439.2
2019-02-25T13:03:27.634Z,439.5
2019-02-25T13:04:29.799Z,439.6
2019-02-25T13:05:32.222Z,440
2019-02-25T13:06:33.880Z,440.4
2019-02-25T13:07:36.300Z,440.2
2019-02-25T13:08:38.469Z,440.2
2019-02-25T13:09:40.618Z,440
2019-02-25T13:10:42.767Z,440
2019-02-25T13:11:44.920Z,440.4
2019-02-25T13:12:47.369Z,440.5
2019-02-25T13:13:49.558Z,440.5
2019-02-25T13:14:51.710Z,440.5
2019-02-25T13:15:53.907Z,440.7
2019-02-25T13:16:56.337Z,441.2
2019-02-25T13:18:00.670Z,441.2
2019-02-25T13:19:03.109Z,441.6
2019-02-25T13:20:04.984Z,441.5
2019-02-25T13:21:07.158Z,441.8
2019-02-25T13:22:09.317Z,442.2
2019-02-25T13:23:11.755Z,442.4
2019-02-25T13:24:14.176Z,442.8
2019-02-25T13:25:16.322Z,443
2019-02-25T13:26:18.238Z,442.6
2019-02-25T13:27:20.152Z,442.4
2019-02-25T13:29:31.355Z,443
2019-02-25T13:30:33.553Z,443
2019-02-25T13:31:35.700Z,443.1
2019-02-25T13:32:37.922Z,443.1
2019-02-25T13:33:40.093Z,443.4
2019-02-25T13:34:42.082Z,443
2019-02-25T13:35:45.006Z,442.9
2019-02-25T13:36:47.421Z,443.2
2019-02-25T13:37:49.347Z,443.1
2019-02-25T13:38:51.275Z,443.3
2019-02-25T13:39:53.723Z,443.2
2019-02-25T13:40:56.200Z,443.8
2019-02-25T13:41:58.418Z,443.1
2019-02-25T13:43:00.661Z,443.1
2019-02-25T13:44:02.919Z,442.8
2019-02-25T13:45:05.913Z,443.7
2019-02-25T13:46:08.298Z,443.3
2019-02-25T13:47:10.792Z,443.4
2019-02-25T13:48:13.029Z,443.2
2019-02-25T13:49:15.536Z,443.3
2019-02-25T13:50:18.119Z,443.7
2019-02-25T13:51:20.635Z,444.1
2019-02-25T13:52:23.173Z,444.3
2019-02-25T13:53:25.687Z,443.9
2019-02-25T13:54:30.150Z,444
2019-02-25T13:55:33.013Z,443.8
2019-02-25T13:56:35.770Z,444.6
2019-02-25T13:57:38.226Z,444.8
2019-02-25T13:58:40.147Z,445
2019-02-25T13:59:42.613Z,444.6
2019-02-25T14:00:44.903Z,444.8